createdAt,value
2022-10-25T00:04:56.926Z,13.69
2022-10-25T00:09:58.652Z,13.66
2022-10-25T00:15:02.228Z,13.62
2022-10-25T00:20:04.611Z,13.56
2022-10-25T00:25:07.975Z,13.54
2022-10-25T00:30:10.492Z,13.51
2022-10-25T00:35:12.144Z,13.33
2022-10-25T00:40:13.806Z,13.30
2022-10-25T00:45:21.412Z,13.27
2022-10-25T00:50:31.841Z,13.35
2022-10-25T00:55:36.030Z,13.26
2022-10-25T01:00:37.937Z,13.23
2022-10-25T01:05:39.747Z,13.24
2022-10-25T01:10:41.522Z,13.27
2022-10-25T01:15:51.490Z,13.30
2022-10-25T01:21:19.640Z,13.22
2022-10-25T01:27:03.171Z,13.08
2022-10-25T01:32:23.290Z,12.73
2022-10-25T01:37:40.996Z,12.49
2022-10-25T01:43:02.457Z,12.50
2022-10-25T01:48:16.891Z,12.35
2022-10-25T01:53:18.914Z,12.01
2022-10-25T01:58:46.680Z,11.92
2022-10-25T02:03:59.497Z,11.70
2022-10-25T02:09:27.720Z,11.46
2022-10-25T02:14:35.714Z,11.47
2022-10-25T02:19:42.039Z,11.56
2022-10-25T02:24:46.768Z,11.53
2022-10-25T02:29:49.451Z,11.44
2022-10-25T02:34:51.284Z,11.43
2022-10-25T02:39:53.508Z,11.36
2022-10-25T02:44:55.269Z,11.41
2022-10-25T02:49:56.906Z,11.48
2022-10-25T02:54:58.590Z,11.41
2022-10-25T03:00:00.525Z,11.40
2022-10-25T03:05:02.325Z,11.44
2022-10-25T03:10:04.460Z,11.30
2022-10-25T03:15:06.792Z,11.17
2022-10-25T03:20:09.081Z,11.03
2022-10-25T03:25:10.950Z,11.02
2022-10-25T03:30:14.138Z,11.02
2022-10-25T03:35:15.838Z,10.98
2022-10-25T03:40:19.147Z,10.86
2022-10-25T03:45:21.048Z,10.75
2022-10-25T03:50:22.666Z,10.69
2022-10-25T03:55:24.423Z,10.84
2022-10-25T04:00:27.172Z,10.95
2022-10-25T04:05:29.130Z,10.92
2022-10-25T04:10:30.834Z,10.86
2022-10-25T04:15:34.007Z,10.89
2022-10-25T04:20:36.024Z,11.03
2022-10-25T04:25:37.670Z,11.09
2022-10-25T04:30:39.638Z,11.03
2022-10-25T04:35:41.377Z,10.99
2022-10-25T04:40:43.529Z,11.12
2022-10-25T04:45:45.187Z,11.15
2022-10-25T04:50:47.691Z,11.14
2022-10-25T04:56:00.356Z,11.16
2022-10-25T05:01:07.737Z,11.19
2022-10-25T05:06:15.693Z,11.15
2022-10-25T05:11:19.862Z,11.17
2022-10-25T05:16:24.744Z,11.14
2022-10-25T05:21:30.146Z,11.87
2022-10-25T05:26:32.205Z,12.26
2022-10-25T05:31:33.924Z,12.44
2022-10-25T05:36:35.569Z,12.59
2022-10-25T05:41:37.586Z,12.66
2022-10-25T05:46:39.246Z,12.55
2022-10-25T05:51:41.058Z,12.03
2022-10-25T05:56:43.100Z,11.60
2022-10-25T06:01:46.785Z,11.41
2022-10-25T06:06:48.634Z,11.36
2022-10-25T06:11:50.306Z,11.33
2022-10-25T06:16:51.962Z,11.27
2022-10-25T06:21:56.714Z,11.27
2022-10-25T06:26:58.412Z,11.08
2022-10-25T06:32:00.085Z,11.02
2022-10-25T06:37:01.872Z,11.10
2022-10-25T06:42:04.418Z,11.17
2022-10-25T06:47:22.389Z,11.28
2022-10-25T06:52:24.155Z,11.35
2022-10-25T06:57:25.859Z,11.43
2022-10-25T07:02:28.080Z,11.51
2022-10-25T07:07:30.082Z,11.55
2022-10-25T07:12:37.958Z,11.70
2022-10-25T07:17:39.644Z,11.76
2022-10-25T07:22:41.306Z,11.71
2022-10-25T07:27:42.977Z,11.84
2022-10-25T07:32:44.698Z,11.98
2022-10-25T07:37:46.614Z,12.15
2022-10-25T07:42:49.782Z,12.41
2022-10-25T07:47:52.247Z,12.64
2022-10-25T07:52:55.199Z,12.85
2022-10-25T07:58:01.507Z,13.05
2022-10-25T08:03:03.814Z,13.22
2022-10-25T08:08:05.616Z,13.35
2022-10-25T08:13:07.351Z,13.49
2022-10-25T08:18:09.739Z,13.63
2022-10-25T08:23:12.262Z,13.73
2022-10-25T08:28:14.202Z,13.82
2022-10-25T08:33:15.893Z,13.95
2022-10-25T08:38:18.479Z,14.05
2022-10-25T08:43:50.031Z,14.19
2022-10-25T08:49:12.079Z,14.29
2022-10-25T08:54:27.975Z,14.43
2022-10-25T08:59:34.202Z,14.63
2022-10-25T09:04:35.979Z,14.73
2022-10-25T09:10:30.712Z,14.87
2022-10-25T09:15:32.704Z,14.97
2022-10-25T09:20:41.520Z,15.10
2022-10-25T09:25:52.240Z,15.26
2022-10-25T09:31:00.392Z,15.34
2022-10-25T09:36:04.042Z,15.45
2022-10-25T09:41:11.929Z,15.55
2022-10-25T09:46:19.560Z,15.65
2022-10-25T09:51:37.960Z,15.69
2022-10-25T09:56:40.042Z,15.78
2022-10-25T10:01:42.470Z,15.88
2022-10-25T10:06:44.698Z,15.95
2022-10-25T10:11:48.137Z,16.02
2022-10-25T10:16:56.531Z,16.10
2022-10-25T10:22:01.708Z,16.17
2022-10-25T10:27:08.455Z,16.26
2022-10-25T10:32:26.716Z,16.37
2022-10-25T10:37:31.344Z,16.51
2022-10-25T10:42:35.501Z,16.61
2022-10-25T10:47:44.500Z,16.73
2022-10-25T10:52:47.915Z,16.87
2022-10-25T10:57:52.906Z,16.99
2022-10-25T11:02:57.755Z,17.11
2022-10-25T11:08:17.578Z,17.30
2022-10-25T11:13:20.376Z,17.41
2022-10-25T11:19:03.853Z,17.56
2022-10-25T11:24:08.557Z,17.74
2022-10-25T11:29:27.022Z,17.75
2022-10-25T11:34:59.203Z,17.60
2022-10-25T11:40:16.095Z,17.30
2022-10-25T11:45:39.334Z,17.39
2022-10-25T11:51:06.827Z,17.89
2022-10-25T11:56:36.507Z,18.21
2022-10-25T12:01:57.197Z,18.38
2022-10-25T12:07:17.798Z,18.54
2022-10-25T12:12:25.906Z,18.75
2022-10-25T12:17:31.216Z,18.78
2022-10-25T12:22:49.182Z,18.79
2022-10-25T12:28:00.741Z,18.75
2022-10-25T12:33:27.675Z,18.69
2022-10-25T12:38:40.210Z,18.83
2022-10-25T12:43:51.020Z,18.88
2022-10-25T12:49:11.591Z,18.99
2022-10-25T12:54:50.592Z,19.16
2022-10-25T13:00:03.836Z,19.31
2022-10-25T13:05:42.457Z,19.39
2022-10-25T13:10:58.110Z,19.34
2022-10-25T13:16:02.899Z,19.25
2022-10-25T13:21:07.581Z,19.23
2022-10-25T13:26:20.452Z,19.19
2022-10-25T13:31:34.401Z,19.29
2022-10-25T13:36:55.989Z,19.35
2022-10-25T13:42:18.102Z,19.21
2022-10-25T13:47:35.631Z,19.23
2022-10-25T13:52:37.721Z,19.29
2022-10-25T13:57:48.432Z,19.37
2022-10-25T14:03:08.530Z,19.37
2022-10-25T14:08:27.889Z,19.31
2022-10-25T14:13:54.959Z,19.39
2022-10-25T14:19:02.248Z,19.44
2022-10-25T14:24:11.508Z,19.30
2022-10-25T14:29:15.335Z,19.18
2022-10-25T14:34:20.840Z,19.14
2022-10-25T14:39:28.470Z,19.06
2022-10-25T14:44:43.692Z,18.97
2022-10-25T14:49:45.508Z,18.85
2022-10-25T14:54:56.396Z,18.75
2022-10-25T15:00:02.276Z,18.65
2022-10-25T15:05:05.394Z,18.63
2022-10-25T15:10:27.339Z,18.54
2022-10-25T15:15:40.454Z,18.27
2022-10-25T15:20:42.164Z,17.83
2022-10-25T15:25:43.852Z,17.34
2022-10-25T15:30:48.762Z,16.96
2022-10-25T15:35:59.510Z,16.44
2022-10-25T15:41:02.854Z,16.03
2022-10-25T15:46:05.181Z,15.82
2022-10-25T15:51:11.708Z,15.58
2022-10-25T15:56:17.199Z,15.38
2022-10-25T16:01:19.216Z,14.99
2022-10-25T16:06:21.001Z,14.85
2022-10-25T16:11:22.830Z,14.84
2022-10-25T16:16:39.935Z,14.80
2022-10-25T16:21:42.841Z,14.69
2022-10-25T16:26:46.784Z,14.56
2022-10-25T16:31:48.528Z,14.45
2022-10-25T16:36:50.749Z,14.27
2022-10-25T16:41:54.809Z,14.04
2022-10-25T16:46:56.517Z,13.77
2022-10-25T16:51:58.408Z,13.72
2022-10-25T16:57:00.101Z,13.63
2022-10-25T17:02:01.928Z,13.51
2022-10-25T17:07:03.764Z,13.46
2022-10-25T17:12:05.632Z,13.38
2022-10-25T17:17:07.594Z,13.34
2022-10-25T17:22:09.285Z,13.32
2022-10-25T17:27:10.985Z,13.14
2022-10-25T17:32:12.770Z,13.02
2022-10-25T17:37:14.540Z,12.90
2022-10-25T17:42:16.382Z,12.70
2022-10-25T17:47:18.120Z,12.70
2022-10-25T17:52:20.678Z,12.63
2022-10-25T17:57:22.626Z,12.64
2022-10-25T18:02:24.598Z,12.71
2022-10-25T18:07:28.878Z,12.71
2022-10-25T18:12:33.376Z,12.56
2022-10-25T18:17:35.059Z,12.18
2022-10-25T18:22:36.707Z,12.09
2022-10-25T18:27:38.488Z,12.16
2022-10-25T18:32:40.200Z,12.29
2022-10-25T18:37:41.840Z,12.38
2022-10-25T18:42:43.489Z,12.42
2022-10-25T18:47:49.474Z,12.30
2022-10-25T18:52:53.216Z,12.13
2022-10-25T18:57:55.504Z,11.96
2022-10-25T19:02:57.779Z,11.93
2022-10-25T19:07:59.540Z,12.10
2022-10-25T19:13:01.342Z,12.20
2022-10-25T19:18:03.152Z,12.27
2022-10-25T19:23:04.801Z,12.34
2022-10-25T19:28:07.832Z,12.37
2022-10-25T19:33:09.545Z,12.35
2022-10-25T19:38:12.553Z,12.29
2022-10-25T19:43:15.429Z,12.27
2022-10-25T19:48:17.285Z,12.34
2022-10-25T19:53:19.251Z,12.35
2022-10-25T19:58:20.954Z,12.26
2022-10-25T20:03:22.806Z,12.10
2022-10-25T20:08:24.417Z,11.95
2022-10-25T20:13:26.122Z,11.89
2022-10-25T20:18:34.333Z,11.89
2022-10-25T20:23:36.567Z,11.84
2022-10-25T20:28:38.329Z,11.80
2022-10-25T20:33:40.696Z,11.74
2022-10-25T20:38:42.587Z,11.70
2022-10-25T20:43:52.784Z,11.70
2022-10-25T20:48:54.602Z,11.68
2022-10-25T20:53:56.962Z,11.54
2022-10-25T20:58:58.781Z,11.36
2022-10-25T21:04:00.534Z,11.51
2022-10-25T21:09:02.255Z,11.40
2022-10-25T21:14:03.910Z,11.53
2022-10-25T21:19:05.768Z,11.48
2022-10-25T21:24:09.998Z,11.32
2022-10-25T21:29:11.864Z,11.28
2022-10-25T21:34:13.550Z,11.38
2022-10-25T21:39:19.661Z,11.48
2022-10-25T21:44:22.375Z,11.52
2022-10-25T21:49:24.045Z,11.59
2022-10-25T21:54:25.775Z,11.68
2022-10-25T21:59:27.527Z,11.69
2022-10-25T22:04:29.235Z,11.78
2022-10-25T22:09:31.040Z,11.71
2022-10-25T22:14:32.682Z,11.65
2022-10-25T22:19:34.408Z,11.71
2022-10-25T22:24:36.225Z,11.90
2022-10-25T22:29:38.013Z,12.08
2022-10-25T22:34:39.700Z,12.02
2022-10-25T22:39:41.430Z,11.94
2022-10-25T22:44:43.097Z,11.90
2022-10-25T22:49:44.742Z,11.70
2022-10-25T22:54:47.157Z,11.66
2022-10-25T22:59:48.835Z,11.60
2022-10-25T23:04:50.541Z,11.56
2022-10-25T23:09:52.265Z,11.54
2022-10-25T23:14:53.888Z,11.50
2022-10-25T23:19:55.525Z,11.53
2022-10-25T23:24:57.185Z,11.45
2022-10-25T23:29:59.013Z,11.41
2022-10-25T23:35:00.660Z,11.32
2022-10-25T23:40:02.283Z,11.41
2022-10-25T23:45:05.295Z,11.53
2022-10-25T23:50:08.654Z,11.45
2022-10-25T23:55:10.422Z,11.19
